Time;durP1;ratioP1;P1;durP2;ratioP2;P2;SDS_P1;SDS_P2;PMS_P1;PMS_P2;Temp;Humidity;BMP_temperature;BMP_pressure;BME280_temperature;BME280_humidity;BME280_pressure;Samples;Min_cycle;Max_cycle;Signal;HPM_P1;HPM_P2
2022/03/31 00:01:30;;;;;;;;;;;4.70;99.90;;;;;;5093961;28;20322;-42
2022/03/31 00:03:56;;;;;;;;;;;4.70;99.90;;;;;;5092934;28;19935;-42
2022/03/31 00:06:21;;;;;;;;;;;4.70;99.90;;;;;;5093310;28;19961;-42
2022/03/31 00:08:47;;;;;;;;;;;4.70;99.90;;;;;;5093444;28;20285;-42
2022/03/31 00:11:12;;;;;;;;;;;4.70;99.90;;;;;;5093237;28;20355;-42
2022/03/31 00:13:38;;;;;;;;;;;4.70;99.90;;;;;;5093643;28;19908;-42
2022/03/31 00:16:04;;;;;;;;;;;4.70;99.90;;;;;;5092951;28;20450;-42
2022/03/31 00:18:31;;;;;;;;;;;4.70;99.90;;;;;;5092856;28;20359;-43
2022/03/31 00:23:59;;;;;;;;;;;4.70;99.90;;;;;;5092613;28;20004;-42
2022/03/31 00:26:25;;;;;;;;;;;4.70;99.90;;;;;;5093049;28;20328;-42
2022/03/31 00:28:50;;;;;;;;;;;4.70;99.90;;;;;;5092640;28;19954;-43
2022/03/31 00:31:15;;;;;;;;;;;4.80;99.90;;;;;;5092280;28;20011;-42
2022/03/31 00:33:41;;;;;;;;;;;4.80;99.90;;;;;;5093060;28;19931;-42
2022/03/31 00:36:06;;;;;;;;;;;4.80;99.90;;;;;;5093065;28;19953;-42
2022/03/31 00:38:32;;;;;;;;;;;4.90;99.90;;;;;;5092731;28;19908;-42
2022/03/31 00:40:57;;;;;;;;;;;4.90;99.90;;;;;;5092965;28;20267;-43
2022/03/31 00:43:23;;;;;;;;;;;4.90;99.90;;;;;;5093112;28;19908;-43
2022/03/31 00:45:51;;;;;;;;;;;4.90;99.90;;;;;;5091838;28;19916;-42
2022/03/31 00:48:18;;;;;;;;;;;4.90;99.90;;;;;;5093094;28;19915;-42
2022/03/31 00:50:44;;;;;;;;;;;4.90;99.90;;;;;;5092861;28;19919;-43
2022/03/31 00:53:11;;;;;;;;;;;4.90;99.90;;;;;;5092328;28;19915;-42
2022/03/31 00:55:36;;;;;;;;;;;4.80;99.90;;;;;;5091704;28;21524;-42
2022/03/31 00:58:02;;;;;;;;;;;4.80;99.90;;;;;;5092675;28;19999;-42
2022/03/31 01:00:29;;;;;;;;;;;4.80;99.90;;;;;;5092499;28;19915;-42
2022/03/31 01:02:55;;;;;;;;;;;4.80;99.90;;;;;;5092551;28;20424;-43
2022/03/31 01:05:20;;;;;;;;;;;4.80;99.90;;;;;;5092848;28;19917;-42
2022/03/31 01:07:46;;;;;;;;;;;4.80;99.90;;;;;;5092031;28;19954;-42
2022/03/31 01:10:12;;;;;;;;;;;4.80;99.90;;;;;;5092712;28;19912;-42
2022/03/31 01:12:38;;;;;;;;;;;4.80;99.90;;;;;;5092206;28;20366;-42
2022/03/31 01:15:08;;;;;;;;;;;4.80;99.90;;;;;;5092255;28;19912;-42
2022/03/31 01:17:34;;;;;;;;;;;4.80;99.90;;;;;;5092857;28;20489;-42
2022/03/31 01:20:00;;;;;;;;;;;4.80;99.90;;;;;;5091874;28;19916;-43
2022/03/31 01:22:27;;;;;;;;;;;4.70;99.90;;;;;;5092461;28;19912;-43
2022/03/31 01:24:53;;;;;;;;;;;4.70;99.90;;;;;;5092488;28;20015;-42
2022/03/31 01:27:19;;;;;;;;;;;4.70;99.90;;;;;;5092137;28;19908;-42
2022/03/31 01:29:44;;;;;;;;;;;4.70;99.90;;;;;;5092491;28;19916;-42
2022/03/31 01:32:11;;;;;;;;;;;4.70;99.90;;;;;;5092489;28;19915;-42
2022/03/31 01:34:37;;;;;;;;;;;4.70;99.90;;;;;;5091984;28;19927;-42
2022/03/31 01:37:03;;;;;;;;;;;4.60;99.90;;;;;;5092256;28;19908;-43
2022/03/31 01:39:29;;;;;;;;;;;4.70;99.90;;;;;;5092477;28;19915;-43
2022/03/31 01:41:54;;;;;;;;;;;4.70;99.90;;;;;;5094183;28;19946;-42
2022/03/31 01:44:20;;;;;;;;;;;4.60;99.90;;;;;;5096439;28;19917;-43
2022/03/31 01:46:45;;;;;;;;;;;4.70;99.90;;;;;;5095613;28;20305;-43
2022/03/31 01:49:11;;;;;;;;;;;4.70;99.90;;;;;;5095871;28;19912;-42
2022/03/31 01:51:36;;;;;;;;;;;4.70;99.90;;;;;;5096442;28;20335;-42
2022/03/31 01:54:02;;;;;;;;;;;4.70;99.90;;;;;;5095989;28;19916;-43
2022/03/31 01:56:28;;;;;;;;;;;4.70;99.90;;;;;;5095712;28;20343;-42
2022/03/31 01:58:53;;;;;;;;;;;4.60;99.90;;;;;;5095824;28;19908;-43
2022/03/31 02:01:19;;;;;;;;;;;4.60;99.90;;;;;;5096190;28;19960;-42
2022/03/31 02:03:44;;;;;;;;;;;4.60;99.90;;;;;;5095556;28;20011;-43
2022/03/31 02:06:10;;;;;;;;;;;4.60;99.90;;;;;;5095840;28;19958;-43
2022/03/31 02:08:35;;;;;;;;;;;4.60;99.90;;;;;;5096117;28;20256;-42
2022/03/31 02:11:02;;;;;;;;;;;4.60;99.90;;;;;;5094976;28;19912;-42
2022/03/31 02:13:28;;;;;;;;;;;4.60;99.90;;;;;;5095952;28;19908;-42
2022/03/31 02:15:54;;;;;;;;;;;4.60;99.90;;;;;;5094904;28;20355;-43
2022/03/31 02:18:20;;;;;;;;;;;4.60;99.90;;;;;;5095837;28;20343;-42
2022/03/31 02:20:46;;;;;;;;;;;4.60;99.90;;;;;;5095499;28;19916;-42
2022/03/31 02:23:11;;;;;;;;;;;4.60;99.90;;;;;;5095304;28;19912;-42
2022/03/31 02:25:38;;;;;;;;;;;4.50;99.90;;;;;;5095794;28;19919;-42
2022/03/31 02:28:04;;;;;;;;;;;4.50;99.90;;;;;;5095358;28;19908;-42
2022/03/31 02:30:30;;;;;;;;;;;4.50;99.90;;;;;;5095107;28;19912;-42
2022/03/31 02:32:55;;;;;;;;;;;4.50;99.90;;;;;;5095290;28;19965;-42
2022/03/31 02:35:21;;;;;;;;;;;4.50;99.90;;;;;;5095373;28;20042;-42
2022/03/31 02:37:46;;;;;;;;;;;4.50;99.90;;;;;;5094698;28;19953;-42
2022/03/31 02:40:12;;;;;;;;;;;4.50;99.90;;;;;;5095355;28;19912;-42
2022/03/31 02:42:37;;;;;;;;;;;4.50;99.90;;;;;;5095457;28;19908;-42
2022/03/31 02:45:04;;;;;;;;;;;4.50;99.90;;;;;;5094139;28;20429;-42
2022/03/31 02:47:29;;;;;;;;;;;4.50;99.90;;;;;;5095190;28;19912;-42
2022/03/31 02:49:56;;;;;;;;;;;4.50;99.90;;;;;;5095000;28;19915;-43
2022/03/31 02:52:22;;;;;;;;;;;4.60;99.90;;;;;;5093613;28;19954;-43
2022/03/31 02:57:31;;;;;;;;;;;4.50;99.90;;;;;;5095231;28;19919;-42
2022/03/31 02:59:57;;;;;;;;;;;4.50;99.90;;;;;;5094320;28;19908;-43
2022/03/31 03:02:22;;;;;;;;;;;4.60;99.90;;;;;;5095108;28;19909;-42
2022/03/31 03:04:48;;;;;;;;;;;4.60;99.90;;;;;;5094666;28;19916;-42
2022/03/31 03:07:15;;;;;;;;;;;4.60;99.90;;;;;;5094241;28;19908;-42
2022/03/31 03:09:40;;;;;;;;;;;4.60;99.90;;;;;;5094779;28;20269;-42
2022/03/31 03:12:06;;;;;;;;;;;4.60;99.90;;;;;;5094114;28;19912;-42
2022/03/31 03:14:32;;;;;;;;;;;4.50;99.90;;;;;;5094802;28;20267;-42
2022/03/31 03:16:57;;;;;;;;;;;4.60;99.90;;;;;;5094136;28;19918;-42
2022/03/31 03:19:23;;;;;;;;;;;4.60;99.90;;;;;;5094191;28;20428;-42
2022/03/31 03:21:48;;;;;;;;;;;4.60;99.90;;;;;;5094223;28;19908;-42
2022/03/31 03:24:14;;;;;;;;;;;4.60;99.90;;;;;;5094414;28;19965;-42
2022/03/31 03:26:39;;;;;;;;;;;4.60;99.90;;;;;;5094088;28;20299;-42
2022/03/31 03:29:05;;;;;;;;;;;4.60;99.90;;;;;;5094356;28;19915;-42
2022/03/31 03:31:30;;;;;;;;;;;4.60;99.90;;;;;;5094439;28;20409;-42
2022/03/31 03:33:55;;;;;;;;;;;4.70;99.90;;;;;;5093468;28;19920;-43
2022/03/31 03:36:21;;;;;;;;;;;4.60;99.90;;;;;;5094294;28;20006;-42
2022/03/31 03:38:46;;;;;;;;;;;4.60;99.90;;;;;;5093965;28;19973;-42
2022/03/31 03:41:13;;;;;;;;;;;4.60;99.90;;;;;;5093885;28;20374;-42
2022/03/31 03:43:39;;;;;;;;;;;4.60;99.90;;;;;;5094117;28;19916;-42
2022/03/31 03:46:04;;;;;;;;;;;4.50;99.90;;;;;;5093661;28;19912;-42
2022/03/31 03:48:30;;;;;;;;;;;4.50;99.90;;;;;;5093597;28;19912;-42
2022/03/31 03:50:55;;;;;;;;;;;4.50;99.90;;;;;;5093847;28;19908;-42
2022/03/31 03:53:21;;;;;;;;;;;4.40;99.90;;;;;;5093553;28;20101;-42
2022/03/31 03:55:47;;;;;;;;;;;4.40;99.90;;;;;;5093199;28;19908;-42
2022/03/31 03:58:13;;;;;;;;;;;4.40;99.90;;;;;;5094170;28;19954;-42
2022/03/31 04:00:38;;;;;;;;;;;4.40;99.90;;;;;;5094017;28;20314;-42
2022/03/31 04:03:05;;;;;;;;;;;4.40;99.90;;;;;;5093180;28;19995;-42
2022/03/31 04:05:30;;;;;;;;;;;4.30;99.90;;;;;;5093311;28;20305;-44
2022/03/31 04:07:56;;;;;;;;;;;4.40;99.90;;;;;;5093403;28;20524;-42
2022/03/31 04:10:21;;;;;;;;;;;4.30;99.90;;;;;;5093292;28;19916;-44
2022/03/31 04:12:46;;;;;;;;;;;4.30;99.90;;;;;;5093558;28;19962;-42
2022/03/31 04:15:15;;;;;;;;;;;4.30;99.90;;;;;;5093696;28;19939;-44
2022/03/31 04:17:42;;;;;;;;;;;4.30;99.90;;;;;;5093012;28;20003;-42
2022/03/31 04:20:08;;;;;;;;;;;4.40;99.90;;;;;;5093673;28;19915;-41
2022/03/31 04:22:34;;;;;;;;;;;4.30;99.90;;;;;;5092898;28;19908;-42
2022/03/31 04:24:59;;;;;;;;;;;4.30;99.90;;;;;;5093325;28;20018;-42
2022/03/31 04:27:25;;;;;;;;;;;4.30;99.90;;;;;;5093326;28;19908;-43
2022/03/31 04:29:50;;;;;;;;;;;4.30;99.90;;;;;;5092738;28;19963;-42
2022/03/31 04:32:16;;;;;;;;;;;4.30;99.90;;;;;;5093413;28;19916;-42
2022/03/31 04:34:41;;;;;;;;;;;4.30;99.90;;;;;;5092722;28;19975;-42
2022/03/31 04:37:07;;;;;;;;;;;4.40;99.90;;;;;;5092785;28;19974;-42
2022/03/31 04:39:32;;;;;;;;;;;4.40;99.90;;;;;;5093190;28;20403;-44
2022/03/31 04:41:58;;;;;;;;;;;4.40;99.90;;;;;;5092780;28;20264;-42
2022/03/31 04:44:23;;;;;;;;;;;4.40;99.90;;;;;;5092607;28;19969;-42
2022/03/31 04:46:49;;;;;;;;;;;4.40;99.90;;;;;;5092925;28;19913;-41
2022/03/31 04:49:15;;;;;;;;;;;4.40;99.90;;;;;;5093130;28;20363;-42
2022/03/31 04:51:40;;;;;;;;;;;4.40;99.90;;;;;;5092614;28;19912;-42
2022/03/31 04:54:06;;;;;;;;;;;4.40;99.90;;;;;;5092841;28;20037;-41
2022/03/31 04:56:31;;;;;;;;;;;4.40;99.90;;;;;;5093007;28;19908;-42
2022/03/31 04:58:57;;;;;;;;;;;4.30;99.90;;;;;;5092329;28;19912;-42
2022/03/31 05:01:23;;;;;;;;;;;4.30;99.90;;;;;;5092959;28;19927;-43
2022/03/31 05:03:49;;;;;;;;;;;4.30;99.90;;;;;;5092717;28;20433;-42
2022/03/31 05:06:15;;;;;;;;;;;4.30;99.90;;;;;;5091744;28;19951;-42
2022/03/31 05:08:41;;;;;;;;;;;4.30;99.90;;;;;;5092906;28;19912;-42
2022/03/31 05:11:06;;;;;;;;;;;4.30;99.90;;;;;;5093007;28;19954;-43
2022/03/31 05:13:32;;;;;;;;;;;4.30;99.90;;;;;;5092454;28;20375;-42
2022/03/31 05:15:57;;;;;;;;;;;4.30;99.90;;;;;;5093598;28;19908;-42
2022/03/31 05:18:23;;;;;;;;;;;4.30;99.90;;;;;;5097003;28;19958;-42
2022/03/31 05:20:48;;;;;;;;;;;4.30;99.90;;;;;;5096024;28;19915;-41
2022/03/31 05:23:14;;;;;;;;;;;4.30;99.90;;;;;;5097037;28;20363;-42
2022/03/31 05:25:39;;;;;;;;;;;4.30;99.90;;;;;;5095280;28;19946;-45
2022/03/31 05:28:05;;;;;;;;;;;4.30;99.90;;;;;;5095869;28;19951;-42
2022/03/31 05:30:31;;;;;;;;;;;4.30;99.90;;;;;;5095626;28;19908;-42
2022/03/31 05:32:56;;;;;;;;;;;4.30;99.90;;;;;;5095180;28;19998;-42
2022/03/31 05:35:22;;;;;;;;;;;4.30;99.90;;;;;;5089616;28;19931;-43
2022/03/31 05:37:48;;;;;;;;;;;4.30;99.90;;;;;;5094655;28;20007;-42
2022/03/31 05:40:14;;;;;;;;;;;4.20;99.90;;;;;;5096546;28;19908;-42
2022/03/31 05:42:40;;;;;;;;;;;4.20;99.90;;;;;;5095904;28;19950;-42
2022/03/31 05:45:07;;;;;;;;;;;4.20;99.90;;;;;;5095463;28;19959;-42
2022/03/31 05:47:32;;;;;;;;;;;4.20;99.90;;;;;;5095899;28;19965;-42
2022/03/31 05:49:58;;;;;;;;;;;4.20;99.90;;;;;;5095992;28;20002;-42
2022/03/31 05:52:23;;;;;;;;;;;4.20;99.90;;;;;;5096313;28;19915;-42
2022/03/31 05:54:49;;;;;;;;;;;4.20;99.90;;;;;;5095546;28;19966;-42
2022/03/31 05:57:15;;;;;;;;;;;4.20;99.90;;;;;;5096256;28;19908;-42
2022/03/31 05:59:41;;;;;;;;;;;4.20;99.90;;;;;;5096162;28;19908;-43
2022/03/31 06:02:07;;;;;;;;;;;4.20;99.90;;;;;;5095384;28;20064;-42
2022/03/31 06:04:32;;;;;;;;;;;4.20;99.90;;;;;;5095689;28;19982;-42
2022/03/31 06:06:58;;;;;;;;;;;4.10;99.90;;;;;;5095666;28;19935;-42
2022/03/31 06:09:23;;;;;;;;;;;4.10;99.90;;;;;;5095791;28;20240;-42
2022/03/31 06:11:49;;;;;;;;;;;4.10;99.90;;;;;;5095824;28;20348;-42
2022/03/31 06:14:14;;;;;;;;;;;4.10;99.90;;;;;;5095626;28;19912;-42
2022/03/31 06:16:40;;;;;;;;;;;4.10;99.90;;;;;;5095387;28;19954;-42
2022/03/31 06:19:08;;;;;;;;;;;4.20;99.90;;;;;;5094645;28;19912;-42
2022/03/31 06:21:34;;;;;;;;;;;4.20;99.90;;;;;;5094293;28;19971;-42
2022/03/31 06:24:00;;;;;;;;;;;4.20;99.90;;;;;;5095554;28;20382;-42
2022/03/31 06:26:26;;;;;;;;;;;4.20;99.90;;;;;;5094992;28;19947;-42
2022/03/31 06:28:51;;;;;;;;;;;4.20;99.90;;;;;;5094500;28;19908;-42
2022/03/31 06:31:17;;;;;;;;;;;4.20;99.90;;;;;;5094116;28;19919;-43
2022/03/31 06:33:42;;;;;;;;;;;4.20;99.90;;;;;;5094499;28;19970;-42
2022/03/31 06:36:08;;;;;;;;;;;4.30;99.90;;;;;;5090682;28;19912;-44
2022/03/31 06:38:35;;;;;;;;;;;4.30;99.90;;;;;;5093698;28;22373;-45
2022/03/31 06:41:07;;;;;;;;;;;4.20;99.90;;;;;;5094432;28;19915;-42
2022/03/31 06:43:35;;;;;;;;;;;4.20;99.90;;;;;;5107933;28;19958;-42
2022/03/31 06:46:01;;;;;;;;;;;4.20;99.90;;;;;;5107261;28;19920;-42
2022/03/31 06:48:27;;;;;;;;;;;4.20;99.90;;;;;;5095267;28;19908;-42
2022/03/31 06:50:53;;;;;;;;;;;4.20;99.90;;;;;;5093876;28;19916;-42
2022/03/31 06:53:18;;;;;;;;;;;4.20;99.90;;;;;;5095358;28;19947;-42
2022/03/31 06:55:44;;;;;;;;;;;4.30;99.90;;;;;;5094712;28;19934;-42
2022/03/31 06:58:09;;;;;;;;;;;4.30;99.90;;;;;;5094589;28;19909;-41
2022/03/31 07:00:35;;;;;;;;;;;4.30;99.90;;;;;;5094747;28;19935;-42
2022/03/31 07:03:00;;;;;;;;;;;4.30;99.90;;;;;;5094486;28;19909;-42
2022/03/31 07:05:26;;;;;;;;;;;4.30;99.90;;;;;;5094064;28;19916;-42
2022/03/31 07:07:52;;;;;;;;;;;4.30;99.90;;;;;;5093210;28;20492;-42
2022/03/31 07:10:18;;;;;;;;;;;4.30;99.90;;;;;;5094760;28;19908;-42
2022/03/31 07:12:43;;;;;;;;;;;4.30;99.90;;;;;;5094434;28;19915;-44
2022/03/31 07:15:09;;;;;;;;;;;4.30;99.90;;;;;;5094614;28;20279;-42
2022/03/31 07:17:35;;;;;;;;;;;4.30;99.90;;;;;;5094865;28;19931;-42
2022/03/31 07:20:01;;;;;;;;;;;4.30;99.90;;;;;;5093929;28;20347;-42
2022/03/31 07:22:26;;;;;;;;;;;4.40;99.90;;;;;;5094832;28;19908;-42
2022/03/31 07:24:52;;;;;;;;;;;4.40;99.90;;;;;;5094046;28;19981;-44
2022/03/31 07:27:17;;;;;;;;;;;4.40;99.90;;;;;;5094200;28;19916;-43
2022/03/31 07:29:43;;;;;;;;;;;4.40;99.90;;;;;;5094298;28;20327;-42
2022/03/31 07:32:08;;;;;;;;;;;4.40;99.90;;;;;;5094659;28;20321;-43
2022/03/31 07:34:34;;;;;;;;;;;4.50;99.90;;;;;;5093463;28;19927;-42
2022/03/31 07:37:00;;;;;;;;;;;4.50;99.90;;;;;;5094134;28;20007;-42
2022/03/31 07:39:26;;;;;;;;;;;4.40;99.90;;;;;;5093371;28;20270;-42
2022/03/31 07:41:52;;;;;;;;;;;4.50;99.90;;;;;;5094016;28;19953;-42
2022/03/31 07:44:17;;;;;;;;;;;4.50;99.90;;;;;;5094334;28;19920;-42
2022/03/31 07:46:43;;;;;;;;;;;4.50;99.90;;;;;;5093299;28;19977;-42
2022/03/31 07:49:08;;;;;;;;;;;4.40;99.90;;;;;;5094215;28;19916;-42
2022/03/31 07:51:34;;;;;;;;;;;4.50;99.90;;;;;;5094251;28;19912;-42
2022/03/31 07:53:59;;;;;;;;;;;4.50;99.90;;;;;;5093051;28;20260;-41
2022/03/31 07:56:25;;;;;;;;;;;4.50;99.90;;;;;;5094113;28;19955;-42
2022/03/31 07:58:50;;;;;;;;;;;4.50;99.90;;;;;;5093814;28;19915;-41
2022/03/31 08:01:16;;;;;;;;;;;4.50;99.90;;;;;;5093386;28;19916;-42
2022/03/31 08:03:41;;;;;;;;;;;4.50;99.90;;;;;;5093897;28;19915;-42
2022/03/31 08:06:08;;;;;;;;;;;4.50;99.90;;;;;;5093673;28;19912;-43
2022/03/31 08:08:33;;;;;;;;;;;4.50;99.90;;;;;;5093316;28;19912;-42
2022/03/31 08:10:59;;;;;;;;;;;4.50;99.90;;;;;;5093567;28;20275;-42
2022/03/31 08:13:26;;;;;;;;;;;4.50;99.90;;;;;;5093629;28;19909;-42
2022/03/31 08:15:53;;;;;;;;;;;4.50;99.90;;;;;;5092776;28;19912;-41
2022/03/31 08:18:19;;;;;;;;;;;4.50;99.90;;;;;;5093879;28;19939;-42
2022/03/31 08:20:45;;;;;;;;;;;4.50;99.90;;;;;;5092843;28;19998;-42
2022/03/31 08:23:10;;;;;;;;;;;4.60;99.90;;;;;;5092971;28;20396;-42
2022/03/31 08:25:36;;;;;;;;;;;4.50;99.90;;;;;;5093435;28;19916;-42
2022/03/31 08:28:01;;;;;;;;;;;4.50;99.90;;;;;;5093119;28;19913;-42
2022/03/31 08:30:28;;;;;;;;;;;4.50;99.90;;;;;;5092796;28;19908;-41
2022/03/31 08:32:53;;;;;;;;;;;4.50;99.90;;;;;;5093172;28;20006;-42
2022/03/31 08:35:19;;;;;;;;;;;4.40;99.90;;;;;;5093025;28;20102;-42
2022/03/31 08:37:45;;;;;;;;;;;4.50;99.90;;;;;;5092974;28;20247;-42
2022/03/31 08:40:12;;;;;;;;;;;4.50;99.90;;;;;;5113534;28;19911;-42
2022/03/31 08:42:38;;;;;;;;;;;4.40;99.90;;;;;;5105032;28;19908;-42
2022/03/31 08:45:04;;;;;;;;;;;4.40;99.90;;;;;;5092032;28;20359;-42
2022/03/31 08:47:30;;;;;;;;;;;4.40;99.90;;;;;;5098703;28;19908;-42
2022/03/31 08:49:56;;;;;;;;;;;4.40;99.90;;;;;;5112394;28;19912;-42
2022/03/31 08:52:22;;;;;;;;;;;4.30;99.90;;;;;;5100170;28;20018;-42
2022/03/31 08:54:47;;;;;;;;;;;4.30;99.90;;;;;;5092860;28;20379;-42
2022/03/31 08:57:13;;;;;;;;;;;4.30;99.90;;;;;;5092413;28;19999;-42
2022/03/31 08:59:38;;;;;;;;;;;4.40;99.90;;;;;;5081510;28;20018;-42
2022/03/31 09:02:04;;;;;;;;;;;4.40;99.90;;;;;;5072055;28;19955;-42
2022/03/31 09:04:29;;;;;;;;;;;4.30;99.90;;;;;;5096630;28;20441;-41
2022/03/31 09:07:05;;;;;;;;;;;4.40;99.90;;;;;;5112888;28;20270;-42
2022/03/31 09:09:31;;;;;;;;;;;4.40;99.90;;;;;;5113419;28;19911;-44
2022/03/31 09:11:56;;;;;;;;;;;4.40;99.90;;;;;;5112400;28;19907;-41
2022/03/31 09:14:29;;;;;;;;;;;4.30;99.90;;;;;;5113358;28;20328;-42
2022/03/31 09:16:55;;;;;;;;;;;4.30;99.90;;;;;;5112951;28;19907;-42
2022/03/31 09:19:20;;;;;;;;;;;4.30;99.90;;;;;;5112834;28;20251;-41
2022/03/31 09:21:53;;;;;;;;;;;4.20;99.90;;;;;;5112838;28;19907;-42
2022/03/31 09:24:19;;;;;;;;;;;4.20;99.90;;;;;;5113008;28;19982;-42
2022/03/31 09:26:45;;;;;;;;;;;4.10;99.90;;;;;;5100067;28;20405;-42
2022/03/31 09:29:15;;;;;;;;;;;4.10;99.90;;;;;;5092786;28;20418;-43
2022/03/31 09:31:41;;;;;;;;;;;4.10;99.90;;;;;;5092656;28;20427;-41
2022/03/31 09:34:08;;;;;;;;;;;4.00;99.90;;;;;;5091610;28;19926;-42
2022/03/31 09:36:34;;;;;;;;;;;4.00;99.90;;;;;;5092814;28;19912;-42
2022/03/31 09:39:02;;;;;;;;;;;3.90;99.90;;;;;;5091652;28;19970;-42
2022/03/31 09:41:35;;;;;;;;;;;3.90;99.90;;;;;;5092731;28;19943;-41
2022/03/31 09:44:05;;;;;;;;;;;3.90;99.90;;;;;;5091717;28;19919;-41
2022/03/31 09:46:30;;;;;;;;;;;3.80;99.90;;;;;;5086017;28;19912;-42
2022/03/31 09:48:57;;;;;;;;;;;3.70;99.90;;;;;;5090941;28;19909;-42
2022/03/31 09:51:24;;;;;;;;;;;3.70;99.90;;;;;;5091156;28;19919;-42
2022/03/31 09:53:51;;;;;;;;;;;3.70;99.90;;;;;;5090668;28;20469;-42
2022/03/31 09:56:17;;;;;;;;;;;3.60;99.90;;;;;;5091331;28;19943;-42
2022/03/31 09:58:44;;;;;;;;;;;3.60;99.90;;;;;;5091762;28;20354;-42
2022/03/31 10:01:10;;;;;;;;;;;3.60;99.90;;;;;;5091759;28;19962;-42
2022/03/31 10:03:37;;;;;;;;;;;3.60;99.90;;;;;;5095359;28;19912;-44
2022/03/31 10:06:03;;;;;;;;;;;3.60;99.90;;;;;;5095417;28;19923;-41
2022/03/31 10:08:32;;;;;;;;;;;3.60;99.90;;;;;;5095721;28;19909;-42
2022/03/31 10:10:58;;;;;;;;;;;3.60;99.90;;;;;;5095673;28;19908;-42
2022/03/31 10:13:25;;;;;;;;;;;3.50;99.90;;;;;;5095468;28;19923;-42
2022/03/31 10:15:58;;;;;;;;;;;3.50;99.90;;;;;;5095454;28;19954;-42
2022/03/31 10:18:23;;;;;;;;;;;3.50;99.90;;;;;;5095597;28;19916;-42
2022/03/31 10:20:57;;;;;;;;;;;3.50;99.90;;;;;;5094862;28;19934;-43
2022/03/31 10:26:06;;;;;;;;;;;3.40;99.90;;;;;;5116269;28;19965;-42
2022/03/31 10:28:31;;;;;;;;;;;3.40;99.90;;;;;;5097329;28;20314;-42
2022/03/31 10:31:03;;;;;;;;;;;3.40;99.90;;;;;;5095419;28;19919;-42
2022/03/31 10:33:29;;;;;;;;;;;3.40;99.90;;;;;;5093534;28;19924;-42
2022/03/31 10:36:14;;;;;;;;;;;3.40;99.90;;;;;;5093460;28;19908;-42
2022/03/31 10:38:54;;;;;;;;;;;3.40;99.90;;;;;;5091803;28;19912;-43
2022/03/31 10:41:27;;;;;;;;;;;3.40;99.90;;;;;;5095421;28;19919;-43
2022/03/31 10:43:56;;;;;;;;;;;3.40;99.90;;;;;;5094569;28;19916;-43
2022/03/31 10:46:22;;;;;;;;;;;3.30;99.90;;;;;;5095301;28;19919;-42
2022/03/31 10:48:49;;;;;;;;;;;3.30;99.90;;;;;;5095256;28;19908;-42
2022/03/31 10:51:15;;;;;;;;;;;3.30;99.90;;;;;;5094773;28;19908;-42
2022/03/31 10:53:43;;;;;;;;;;;3.30;99.90;;;;;;5095227;28;19908;-42
2022/03/31 10:56:19;;;;;;;;;;;3.20;99.90;;;;;;5095195;28;20255;-43
2022/03/31 10:58:44;;;;;;;;;;;3.20;99.90;;;;;;5094848;28;20425;-42
2022/03/31 11:01:11;;;;;;;;;;;3.30;99.90;;;;;;5095036;28;19920;-42
2022/03/31 11:03:36;;;;;;;;;;;3.30;99.90;;;;;;5094414;28;19972;-42
2022/03/31 11:06:05;;;;;;;;;;;3.20;99.90;;;;;;5094546;28;20006;-43
2022/03/31 11:08:39;;;;;;;;;;;3.20;99.90;;;;;;5094448;28;19987;-42
2022/03/31 11:11:05;;;;;;;;;;;3.20;99.90;;;;;;5094017;28;19912;-42
2022/03/31 11:13:31;;;;;;;;;;;3.20;99.90;;;;;;5093871;28;19973;-42
2022/03/31 11:15:57;;;;;;;;;;;3.20;99.90;;;;;;5094616;28;19908;-42
2022/03/31 11:18:23;;;;;;;;;;;3.20;99.90;;;;;;5094260;28;19908;-42
2022/03/31 11:20:55;;;;;;;;;;;3.10;99.90;;;;;;5094208;28;19908;-42
2022/03/31 11:23:21;;;;;;;;;;;3.10;99.90;;;;;;5094052;28;19919;-41
2022/03/31 11:25:47;;;;;;;;;;;3.10;99.90;;;;;;5093593;28;20011;-41
2022/03/31 11:28:13;;;;;;;;;;;3.20;99.90;;;;;;5094406;28;20302;-42
2022/03/31 11:30:40;;;;;;;;;;;3.10;99.90;;;;;;5093952;28;20379;-42
2022/03/31 11:33:09;;;;;;;;;;;3.10;99.90;;;;;;5093357;28;19916;-41
2022/03/31 11:35:35;;;;;;;;;;;3.10;99.90;;;;;;5074134;28;19932;-42
2022/03/31 11:38:01;;;;;;;;;;;3.10;99.90;;;;;;5074144;28;20271;-41
2022/03/31 11:40:32;;;;;;;;;;;3.10;99.90;;;;;;5073668;28;19980;-41
2022/03/31 11:42:59;;;;;;;;;;;3.10;99.90;;;;;;5073195;28;20444;-41
2022/03/31 11:45:26;;;;;;;;;;;3.10;99.90;;;;;;5073618;28;19959;-42
2022/03/31 11:47:59;;;;;;;;;;;3.10;99.90;;;;;;5073857;28;20003;-41
2022/03/31 11:50:26;;;;;;;;;;;3.10;99.90;;;;;;5073799;28;19909;-42
2022/03/31 11:52:52;;;;;;;;;;;3.10;99.90;;;;;;5073131;28;19909;-42
2022/03/31 11:55:20;;;;;;;;;;;3.10;99.90;;;;;;5073820;28;19908;-41
2022/03/31 11:57:49;;;;;;;;;;;3.10;99.90;;;;;;5073555;28;19916;-42
2022/03/31 12:00:15;;;;;;;;;;;3.10;99.90;;;;;;5073123;28;19908;-42
2022/03/31 12:02:40;;;;;;;;;;;3.10;99.90;;;;;;5073256;28;19965;-41
2022/03/31 12:05:11;;;;;;;;;;;3.10;99.90;;;;;;5073254;28;19975;-41
2022/03/31 12:07:37;;;;;;;;;;;3.20;99.90;;;;;;5073115;28;19912;-42
2022/03/31 12:10:02;;;;;;;;;;;3.10;99.90;;;;;;5072754;28;19908;-41
2022/03/31 12:12:28;;;;;;;;;;;3.10;99.90;;;;;;5085546;28;20413;-42
2022/03/31 12:14:57;;;;;;;;;;;3.10;99.90;;;;;;5091594;28;20430;-42
2022/03/31 12:17:23;;;;;;;;;;;3.20;99.90;;;;;;5092716;28;19915;-41
2022/03/31 12:19:49;;;;;;;;;;;3.20;99.90;;;;;;5092721;28;19999;-43
2022/03/31 12:22:15;;;;;;;;;;;3.20;99.90;;;;;;5092186;28;19999;-41
2022/03/31 12:24:52;;;;;;;;;;;3.30;99.90;;;;;;5091004;28;20028;-42
2022/03/31 12:27:18;;;;;;;;;;;3.40;99.90;;;;;;5092719;28;19966;-41
2022/03/31 12:29:44;;;;;;;;;;;3.40;99.90;;;;;;5091672;28;19971;-42
2022/03/31 12:32:11;;;;;;;;;;;3.40;99.90;;;;;;5092500;28;20358;-42
2022/03/31 12:34:56;;;;;;;;;;;3.50;99.90;;;;;;5091871;28;19979;-42
2022/03/31 12:37:42;;;;;;;;;;;3.60;99.90;;;;;;5089252;28;20011;-42
2022/03/31 12:40:11;;;;;;;;;;;3.60;99.90;;;;;;5089941;28;20378;-43
2022/03/31 12:42:38;;;;;;;;;;;3.70;99.90;;;;;;5088671;28;19935;-41
2022/03/31 12:45:13;;;;;;;;;;;3.70;99.90;;;;;;5089994;28;19974;-41
2022/03/31 12:47:43;;;;;;;;;;;3.80;99.90;;;;;;5090187;28;19912;-41
2022/03/31 12:50:34;;;;;;;;;;;3.90;99.90;;;;;;5089509;28;19965;-41
2022/03/31 12:53:01;;;;;;;;;;;3.90;99.90;;;;;;5088974;28;19916;-41
2022/03/31 12:55:34;;;;;;;;;;;3.90;99.90;;;;;;5092306;28;19908;-42
2022/03/31 12:58:00;;;;;;;;;;;4.00;99.90;;;;;;5091842;28;20378;-42
2022/03/31 13:00:26;;;;;;;;;;;4.00;99.90;;;;;;5092138;28;19912;-41
2022/03/31 13:02:52;;;;;;;;;;;4.10;99.90;;;;;;5091215;28;20260;-42
2022/03/31 13:05:19;;;;;;;;;;;4.20;99.90;;;;;;5092300;28;19923;-41
2022/03/31 13:07:45;;;;;;;;;;;4.10;99.90;;;;;;5091699;28;19919;-41
2022/03/31 13:10:10;;;;;;;;;;;4.10;99.90;;;;;;5092363;28;19912;-41
2022/03/31 13:12:36;;;;;;;;;;;4.20;99.90;;;;;;5092411;28;20315;-41
2022/03/31 13:15:01;;;;;;;;;;;4.20;99.90;;;;;;5092435;28;19973;-41
2022/03/31 13:17:27;;;;;;;;;;;4.20;99.90;;;;;;5091786;28;19915;-42
2022/03/31 13:19:53;;;;;;;;;;;4.30;99.90;;;;;;5090795;28;19912;-41
2022/03/31 13:22:24;;;;;;;;;;;4.30;99.90;;;;;;5092293;28;19908;-41
2022/03/31 13:24:50;;;;;;;;;;;4.30;99.90;;;;;;5090995;28;19926;-41
2022/03/31 13:27:15;;;;;;;;;;;4.30;99.90;;;;;;5092084;28;19954;-42
2022/03/31 13:29:41;;;;;;;;;;;4.40;99.90;;;;;;5091981;28;20320;-42
2022/03/31 13:32:07;;;;;;;;;;;4.40;99.90;;;;;;5092032;28;20374;-41
2022/03/31 13:34:34;;;;;;;;;;;4.40;99.90;;;;;;5091308;28;19931;-41
2022/03/31 13:37:03;;;;;;;;;;;4.40;99.90;;;;;;5092880;28;19962;-41
2022/03/31 13:39:31;;;;;;;;;;;4.40;99.90;;;;;;5093064;28;19912;-42
2022/03/31 13:41:56;;;;;;;;;;;4.50;99.90;;;;;;5095283;28;19912;-41
2022/03/31 13:44:23;;;;;;;;;;;4.50;99.90;;;;;;5076890;28;20363;-41
2022/03/31 13:46:48;;;;;;;;;;;4.50;99.90;;;;;;5095012;28;19912;-42
2022/03/31 13:49:15;;;;;;;;;;;4.50;99.90;;;;;;5095621;28;20290;-41
2022/03/31 13:51:43;;;;;;;;;;;4.50;99.90;;;;;;5092662;28;20420;-42
2022/03/31 13:54:08;;;;;;;;;;;4.50;99.90;;;;;;5095160;28;20361;-41
2022/03/31 13:56:35;;;;;;;;;;;4.40;99.90;;;;;;5095513;28;19908;-41
2022/03/31 14:01:46;;;;;;;;;;;4.40;99.90;;;;;;5095628;28;20015;-42
2022/03/31 14:04:12;;;;;;;;;;;4.40;99.90;;;;;;5095921;28;19912;-43
2022/03/31 14:06:37;;;;;;;;;;;4.50;99.90;;;;;;5095454;28;20392;-41
2022/03/31 14:09:03;;;;;;;;;;;4.40;99.90;;;;;;5095673;28;19981;-42
2022/03/31 14:11:34;;;;;;;;;;;4.50;99.90;;;;;;5094981;28;20343;-41
2022/03/31 14:14:03;;;;;;;;;;;4.50;99.90;;;;;;5093052;28;19956;-43
2022/03/31 14:16:29;;;;;;;;;;;4.50;99.90;;;;;;5095172;28;19919;-42
2022/03/31 14:18:55;;;;;;;;;;;4.50;99.90;;;;;;5094548;28;19916;-41
2022/03/31 14:21:21;;;;;;;;;;;4.60;99.90;;;;;;5094731;28;19908;-41
2022/03/31 14:23:47;;;;;;;;;;;4.60;99.90;;;;;;5095389;28;19987;-41
2022/03/31 14:26:13;;;;;;;;;;;4.60;99.90;;;;;;5095624;28;20382;-41
2022/03/31 14:28:39;;;;;;;;;;;4.60;99.90;;;;;;5094897;28;20002;-42
2022/03/31 14:31:06;;;;;;;;;;;4.70;99.90;;;;;;5095582;28;19974;-42
2022/03/31 14:33:31;;;;;;;;;;;4.70;99.90;;;;;;5095475;28;20015;-42
2022/03/31 14:35:57;;;;;;;;;;;4.70;99.90;;;;;;5094795;28;19999;-42
2022/03/31 14:38:25;;;;;;;;;;;4.60;99.90;;;;;;5095402;28;20276;-42